createdAt,value
2024-02-10T00:00:21.858Z,4.70
2024-02-10T00:02:53.201Z,4.80
2024-02-10T00:05:24.439Z,5.20
2024-02-10T00:07:56.844Z,4.60
2024-02-10T00:10:29.258Z,4.30
2024-02-10T00:13:01.736Z,4.20
2024-02-10T00:15:33.049Z,4.30
2024-02-10T00:18:11.569Z,4.00
2024-02-10T00:20:43.709Z,4.20
2024-02-10T00:23:15.500Z,3.90
2024-02-10T00:25:46.180Z,4.40
2024-02-10T00:28:18.132Z,4.00
2024-02-10T00:30:50.108Z,4.80
2024-02-10T00:33:20.766Z,4.20
2024-02-10T00:35:51.792Z,4.70
2024-02-10T00:38:22.864Z,4.50
2024-02-10T00:40:53.779Z,4.30
2024-02-10T00:43:24.715Z,4.70
2024-02-10T00:45:59.135Z,4.00
2024-02-10T00:48:29.986Z,3.60
2024-02-10T00:51:02.224Z,3.50
2024-02-10T00:53:32.903Z,3.90
2024-02-10T00:56:03.533Z,4.10
2024-02-10T00:58:34.411Z,3.40
2024-02-10T01:01:05.428Z,3.50
2024-02-10T01:03:36.936Z,3.50
2024-02-10T01:06:10.323Z,3.90
2024-02-10T01:08:42.094Z,3.40
2024-02-10T01:11:12.883Z,3.20
2024-02-10T01:13:45.089Z,3.60
2024-02-10T01:16:17.225Z,3.60
2024-02-10T01:18:50.675Z,2.80
2024-02-10T01:21:22.519Z,3.30
2024-02-10T01:23:53.414Z,2.90
2024-02-10T01:26:24.191Z,2.80
2024-02-10T01:28:54.980Z,2.80
2024-02-10T01:31:26.747Z,2.60
2024-02-10T01:33:57.382Z,2.40
2024-02-10T01:36:30.301Z,2.40
2024-02-10T01:39:01.542Z,2.50
2024-02-10T01:41:32.369Z,2.80
2024-02-10T01:44:03.040Z,2.80
2024-02-10T01:46:34.379Z,3.20
2024-02-10T01:49:05.252Z,2.60
2024-02-10T01:51:36.415Z,2.90
2024-02-10T01:54:08.876Z,2.60
2024-02-10T01:56:40.762Z,2.80
2024-02-10T01:59:11.564Z,3.40
2024-02-10T02:01:47.124Z,3.40
2024-02-10T02:04:18.743Z,2.50
2024-02-10T02:06:50.636Z,3.10
2024-02-10T02:09:21.321Z,3.10
2024-02-10T02:11:52.534Z,3.00
2024-02-10T02:14:23.312Z,3.50
2024-02-10T02:16:54.370Z,3.40
2024-02-10T02:19:25.082Z,3.40
2024-02-10T02:21:55.769Z,3.60
2024-02-10T02:24:29.671Z,3.00
2024-02-10T02:27:01.012Z,3.30
2024-02-10T02:29:32.785Z,3.30
2024-02-10T02:32:04.278Z,3.20
2024-02-10T02:34:38.897Z,3.50
2024-02-10T02:37:09.767Z,3.40
2024-02-10T02:39:40.515Z,3.10
2024-02-10T02:42:11.697Z,4.20
2024-02-10T02:44:43.659Z,3.80
2024-02-10T02:47:14.471Z,3.60
2024-02-10T02:49:45.293Z,3.40
2024-02-10T02:52:16.174Z,3.50
2024-02-10T02:54:48.997Z,4.20
2024-02-10T02:57:19.810Z,3.90
2024-02-10T02:59:50.729Z,3.80
2024-02-10T03:02:22.505Z,3.80
2024-02-10T03:04:53.241Z,4.10
2024-02-10T03:07:24.317Z,4.10
2024-02-10T03:09:55.076Z,3.40
2024-02-10T03:12:25.833Z,3.80
2024-02-10T03:14:56.552Z,3.80
2024-02-10T03:17:31.857Z,3.20
2024-02-10T03:20:06.585Z,3.50
2024-02-10T03:22:37.980Z,3.80
2024-02-10T03:25:13.687Z,3.90
2024-02-10T03:27:45.810Z,4.40
2024-02-10T03:30:17.644Z,4.30
2024-02-10T03:32:50.159Z,3.90
2024-02-10T03:35:21.032Z,3.70
2024-02-10T03:37:51.971Z,3.70
2024-02-10T03:40:23.213Z,4.00
2024-02-10T03:42:54.072Z,4.70
2024-02-10T03:45:27.049Z,3.80
2024-02-10T03:48:06.508Z,3.90
2024-02-10T03:50:37.527Z,4.00
2024-02-10T03:53:08.446Z,3.90
2024-02-10T03:55:39.637Z,3.10
2024-02-10T03:58:13.053Z,3.60
2024-02-10T04:00:45.250Z,3.50
2024-02-10T04:03:16.008Z,3.90
2024-02-10T04:05:47.880Z,3.10
2024-02-10T04:08:20.371Z,3.60
2024-02-10T04:10:51.108Z,3.50
2024-02-10T04:13:23.055Z,3.30
2024-02-10T04:15:54.084Z,3.80
2024-02-10T04:18:29.020Z,4.40
2024-02-10T04:21:02.622Z,3.30
2024-02-10T04:23:33.773Z,3.90
2024-02-10T04:26:06.512Z,3.70
2024-02-10T04:28:37.437Z,3.70
2024-02-10T04:31:08.894Z,3.80
2024-02-10T04:33:39.829Z,3.50
2024-02-10T04:36:13.587Z,3.90
2024-02-10T04:38:44.246Z,3.30
2024-02-10T04:41:14.868Z,7.10
2024-02-10T04:43:45.558Z,4.00
2024-02-10T04:46:18.266Z,2.70
2024-02-10T04:48:49.390Z,3.80
2024-02-10T04:51:20.509Z,3.60
2024-02-10T04:53:51.228Z,3.60
2024-02-10T04:56:22.465Z,3.60
2024-02-10T04:58:53.154Z,3.40
2024-02-10T05:01:33.773Z,3.20
2024-02-10T05:04:06.411Z,2.70
2024-02-10T05:06:38.394Z,2.80
2024-02-10T05:09:09.113Z,2.80
2024-02-10T05:11:39.764Z,3.40
2024-02-10T05:14:11.841Z,4.80
2024-02-10T05:16:42.863Z,5.60
2024-02-10T05:19:16.052Z,4.50
2024-02-10T05:21:46.910Z,3.80
2024-02-10T05:24:17.480Z,3.40
2024-02-10T05:26:50.864Z,3.30
2024-02-10T05:29:21.477Z,3.30
2024-02-10T05:31:52.187Z,3.90
2024-02-10T05:34:22.941Z,4.00
2024-02-10T05:36:54.365Z,3.60
2024-02-10T05:39:25.307Z,3.80
2024-02-10T05:41:56.123Z,4.40
2024-02-10T05:44:27.820Z,5.70
2024-02-10T05:47:02.086Z,5.20
2024-02-10T05:49:35.116Z,3.70
2024-02-10T05:52:07.346Z,4.40
2024-02-10T05:54:41.710Z,3.80
2024-02-10T05:57:17.895Z,4.00
2024-02-10T05:59:49.513Z,4.50
2024-02-10T06:02:22.749Z,3.60
2024-02-10T06:04:54.243Z,3.70
2024-02-10T06:07:27.858Z,4.20
2024-02-10T06:09:58.535Z,3.90
2024-02-10T06:12:29.613Z,4.00
2024-02-10T06:15:00.331Z,4.40
2024-02-10T06:17:36.039Z,4.30
2024-02-10T06:20:14.002Z,3.50
2024-02-10T06:22:47.801Z,3.30
2024-02-10T06:25:24.127Z,3.70
2024-02-10T06:27:56.044Z,3.00
2024-02-10T06:30:31.676Z,3.70
2024-02-10T06:33:05.285Z,3.90
2024-02-10T06:35:37.967Z,4.10
2024-02-10T06:38:11.582Z,4.00
2024-02-10T06:40:44.392Z,5.10
2024-02-10T06:43:15.331Z,5.40
2024-02-10T06:45:47.546Z,4.80
2024-02-10T06:48:20.297Z,4.70
2024-02-10T06:50:53.075Z,4.50
2024-02-10T06:53:24.307Z,4.00
2024-02-10T06:55:56.431Z,4.10
2024-02-10T06:58:27.342Z,4.30
2024-02-10T07:00:59.558Z,4.40
2024-02-10T07:03:33.259Z,4.40
2024-02-10T07:06:04.519Z,4.20
2024-02-10T07:08:35.528Z,4.20
2024-02-10T07:11:06.517Z,3.80
2024-02-10T07:13:38.229Z,3.90
2024-02-10T07:16:10.112Z,5.10
2024-02-10T07:18:42.915Z,3.90
2024-02-10T07:21:13.705Z,4.30
2024-02-10T07:23:45.617Z,4.80
2024-02-10T07:26:18.128Z,4.30
2024-02-10T07:28:52.937Z,5.00
2024-02-10T07:31:23.701Z,4.90
2024-02-10T07:34:00.081Z,5.40
2024-02-10T07:36:35.499Z,4.60
2024-02-10T07:39:08.338Z,4.10
2024-02-10T07:41:40.486Z,4.70
2024-02-10T07:44:14.466Z,5.40
2024-02-10T07:46:46.411Z,5.50
2024-02-10T07:49:20.823Z,4.70
2024-02-10T07:51:52.036Z,6.70
2024-02-10T07:54:23.725Z,6.00
2024-02-10T07:56:55.971Z,6.30
2024-02-10T07:59:27.852Z,6.90
2024-02-10T08:01:58.577Z,7.70
2024-02-10T08:04:29.239Z,6.60
2024-02-10T08:07:01.367Z,7.40
2024-02-10T08:09:32.068Z,6.60
2024-02-10T08:12:04.098Z,7.90
2024-02-10T08:14:37.640Z,11.80
2024-02-10T08:17:10.501Z,7.30
2024-02-10T08:19:43.387Z,12.60
2024-02-10T08:22:15.217Z,12.00
2024-02-10T08:24:47.144Z,6.80
2024-02-10T08:27:18.573Z,10.00
2024-02-10T08:29:49.474Z,6.30
2024-02-10T08:32:20.163Z,4.40
2024-02-10T08:34:52.424Z,4.30
2024-02-10T08:37:23.602Z,4.90
2024-02-10T08:39:54.225Z,6.30
2024-02-10T08:42:26.084Z,10.90
2024-02-10T08:44:57.126Z,3.90
2024-02-10T08:47:30.396Z,4.20
2024-02-10T08:50:02.998Z,4.00
2024-02-10T08:52:33.944Z,3.80
2024-02-10T08:55:08.345Z,3.80
2024-02-10T08:57:39.178Z,3.50
2024-02-10T09:00:12.826Z,3.60
2024-02-10T09:02:46.819Z,3.40
2024-02-10T09:05:17.676Z,2.60
2024-02-10T09:07:48.456Z,3.40
2024-02-10T09:10:19.246Z,2.60
2024-02-10T09:12:50.046Z,2.80
2024-02-10T09:15:21.992Z,3.00
2024-02-10T09:17:55.268Z,3.20
2024-02-10T09:20:32.419Z,3.50
2024-02-10T09:23:05.002Z,3.30
2024-02-10T09:25:38.647Z,3.20
2024-02-10T09:28:09.660Z,2.70
2024-02-10T09:30:41.755Z,2.60
2024-02-10T09:33:23.334Z,2.80
2024-02-10T09:35:56.335Z,3.20
2024-02-10T09:38:27.977Z,3.10
2024-02-10T09:40:59.817Z,3.30
2024-02-10T09:43:34.573Z,3.30
2024-02-10T09:46:09.191Z,3.30
2024-02-10T09:48:43.161Z,3.80
2024-02-10T09:51:14.357Z,4.00
2024-02-10T09:53:45.694Z,3.50
2024-02-10T09:56:17.909Z,3.90
2024-02-10T09:58:50.605Z,3.80
2024-02-10T10:01:21.567Z,4.10
2024-02-10T10:03:52.843Z,4.30
2024-02-10T10:06:25.379Z,4.30
2024-02-10T10:08:56.402Z,4.50
2024-02-10T10:11:28.689Z,4.30
2024-02-10T10:13:59.860Z,4.80
2024-02-10T10:16:30.751Z,4.50
2024-02-10T10:19:01.811Z,5.10
2024-02-10T10:21:33.691Z,4.60
2024-02-10T10:24:04.825Z,4.60
2024-02-10T10:26:38.046Z,4.20
2024-02-10T10:29:10.936Z,5.80
2024-02-10T10:31:45.600Z,5.90
2024-02-10T10:34:17.377Z,5.60
2024-02-10T10:36:50.424Z,6.80
2024-02-10T10:39:23.882Z,6.00
2024-02-10T10:41:57.258Z,5.30
2024-02-10T10:44:28.451Z,5.80
2024-02-10T10:47:01.822Z,5.10
2024-02-10T10:49:34.025Z,5.00
2024-02-10T10:52:06.932Z,6.10
2024-02-10T10:54:40.299Z,5.90
2024-02-10T10:59:52.350Z,5.30
2024-02-10T11:02:37.158Z,6.00
2024-02-10T11:05:17.936Z,5.90
2024-02-10T11:07:51.099Z,5.60
2024-02-10T11:10:38.878Z,5.10
2024-02-10T11:13:20.880Z,5.90
2024-02-10T11:16:01.383Z,6.40
2024-02-10T11:21:11.677Z,6.20
2024-02-10T11:23:42.481Z,6.50
2024-02-10T11:26:14.954Z,6.10
2024-02-10T11:28:45.959Z,5.30
2024-02-10T11:31:18.964Z,6.00
2024-02-10T11:33:49.819Z,6.90
2024-02-10T11:36:21.795Z,6.50
2024-02-10T11:38:52.453Z,6.10
2024-02-10T11:41:25.346Z,6.60
2024-02-10T11:43:56.189Z,7.40
2024-02-10T11:46:30.419Z,8.70
2024-02-10T11:49:02.176Z,7.70
2024-02-10T11:51:33.349Z,7.10
2024-02-10T11:54:04.425Z,7.00
2024-02-10T11:56:35.422Z,7.60
2024-02-10T11:59:06.424Z,7.60
2024-02-10T12:01:37.970Z,6.70
2024-02-10T12:04:09.399Z,6.70
2024-02-10T12:06:40.249Z,7.00
2024-02-10T12:09:11.562Z,7.00
2024-02-10T12:11:44.190Z,7.30
2024-02-10T12:14:16.189Z,6.90
2024-02-10T12:16:47.135Z,8.00
2024-02-10T12:19:20.931Z,6.90
2024-02-10T12:24:23.579Z,6.40
2024-02-10T12:26:54.305Z,7.00
2024-02-10T12:29:26.897Z,6.20
2024-02-10T12:31:57.724Z,6.80
2024-02-10T12:34:28.660Z,7.10
2024-02-10T12:37:00.364Z,7.70
2024-02-10T12:39:31.361Z,7.70
2024-02-10T12:42:02.565Z,6.30
2024-02-10T12:44:36.678Z,6.30
2024-02-10T12:47:11.136Z,6.80
2024-02-10T12:49:45.235Z,7.00
2024-02-10T12:52:17.770Z,7.20
2024-02-10T12:54:49.634Z,7.10
2024-02-10T12:57:21.503Z,6.50
2024-02-10T12:59:54.821Z,6.80
2024-02-10T13:02:28.058Z,6.10
2024-02-10T13:04:59.875Z,7.40
2024-02-10T13:07:31.007Z,5.30
2024-02-10T13:10:02.747Z,6.70
2024-02-10T13:12:33.985Z,7.00
2024-02-10T13:15:05.925Z,7.00
2024-02-10T13:17:37.376Z,6.00
2024-02-10T13:20:11.607Z,7.30
2024-02-10T13:22:42.659Z,7.10
2024-02-10T13:25:13.788Z,7.10
2024-02-10T13:27:46.040Z,8.10
2024-02-10T13:30:19.088Z,6.20
2024-02-10T13:32:50.555Z,7.00
2024-02-10T13:35:25.167Z,7.00
2024-02-10T13:38:15.112Z,7.00
2024-02-10T13:41:03.623Z,7.00
2024-02-10T13:43:52.418Z,6.10
2024-02-10T13:46:41.072Z,6.30
2024-02-10T13:49:29.362Z,6.50
2024-02-10T13:52:18.022Z,6.00
2024-02-10T13:55:06.514Z,6.60
2024-02-10T13:57:55.242Z,6.50
2024-02-10T14:00:31.778Z,6.60
2024-02-10T14:03:03.633Z,6.10
2024-02-10T14:05:56.384Z,5.50
2024-02-10T14:08:43.094Z,6.00
2024-02-10T14:13:54.995Z,6.10
2024-02-10T14:16:32.063Z,6.90
2024-02-10T14:19:07.317Z,6.60
2024-02-10T14:21:39.972Z,6.60
2024-02-10T14:24:16.926Z,6.70
2024-02-10T14:27:02.280Z,7.20
2024-02-10T14:29:35.996Z,7.10
2024-02-10T14:32:14.057Z,6.90
2024-02-10T14:35:05.053Z,6.80
2024-02-10T14:37:48.079Z,7.50
2024-02-10T14:40:35.283Z,7.40
2024-02-10T14:43:06.853Z,6.80
2024-02-10T14:45:39.779Z,7.60
2024-02-10T14:48:11.032Z,5.90
2024-02-10T14:50:42.101Z,6.30
2024-02-10T14:53:13.371Z,6.60
2024-02-10T14:55:44.357Z,6.70
2024-02-10T14:58:15.637Z,7.60
2024-02-10T15:00:46.605Z,6.70
2024-02-10T15:03:18.145Z,6.70
2024-02-10T15:05:50.228Z,6.90
2024-02-10T15:08:22.015Z,6.70
2024-02-10T15:10:53.292Z,7.60
2024-02-10T15:13:25.038Z,9.00
2024-02-10T15:15:55.855Z,7.70
2024-02-10T15:18:27.690Z,8.50
2024-02-10T15:20:58.936Z,7.70
2024-02-10T15:23:29.925Z,8.30
2024-02-10T15:26:01.767Z,8.60
2024-02-10T15:28:35.468Z,7.40
2024-02-10T15:31:07.200Z,7.10
2024-02-10T15:33:38.240Z,6.80
2024-02-10T15:36:26.306Z,7.00
2024-02-10T15:39:02.426Z,7.20
2024-02-10T15:41:35.008Z,5.10
2024-02-10T15:44:09.728Z,6.60
2024-02-10T15:46:42.636Z,7.20
2024-02-10T15:49:14.275Z,6.10
2024-02-10T15:51:45.166Z,6.90
2024-02-10T15:54:15.826Z,7.70
2024-02-10T15:56:47.568Z,7.50
2024-02-10T15:59:21.312Z,7.30
2024-02-10T16:01:57.830Z,8.20
2024-02-10T16:04:28.789Z,8.50
2024-02-10T16:06:59.773Z,8.20
2024-02-10T16:09:30.579Z,8.80
2024-02-10T16:12:01.681Z,7.30
2024-02-10T16:14:32.386Z,8.50
2024-02-10T16:17:04.049Z,8.50
2024-02-10T16:19:40.964Z,8.70
2024-02-10T16:22:11.913Z,8.80
2024-02-10T16:24:44.488Z,7.20
2024-02-10T16:27:15.224Z,8.20
2024-02-10T16:29:47.023Z,7.60
2024-02-10T16:32:17.776Z,7.10
2024-02-10T16:34:54.053Z,8.90
2024-02-10T16:37:25.080Z,7.50
2024-02-10T16:39:56.071Z,8.20
2024-02-10T16:42:27.005Z,7.90
2024-02-10T16:44:58.995Z,8.00
2024-02-10T16:47:29.846Z,8.40
2024-02-10T16:50:00.762Z,7.10
2024-02-10T16:52:33.071Z,8.40
2024-02-10T16:55:04.090Z,7.40
2024-02-10T16:57:35.119Z,7.60
2024-02-10T17:00:11.924Z,7.50
2024-02-10T17:02:42.766Z,7.10
2024-02-10T17:05:19.286Z,5.90
2024-02-10T17:07:54.109Z,7.00
2024-02-10T17:10:24.989Z,6.60
2024-02-10T17:12:55.694Z,6.60
2024-02-10T17:15:26.434Z,6.50
2024-02-10T17:17:57.338Z,5.70
2024-02-10T17:20:29.854Z,6.30
2024-02-10T17:23:00.848Z,6.60
2024-02-10T17:25:33.273Z,6.30
2024-02-10T17:28:04.439Z,6.40
2024-02-10T17:30:35.880Z,6.20
2024-02-10T17:33:07.577Z,6.40
2024-02-10T17:35:38.983Z,5.30
2024-02-10T17:38:11.151Z,6.80
2024-02-10T17:40:42.399Z,6.90
2024-02-10T17:43:33.212Z,7.10
2024-02-10T17:46:04.547Z,7.40
2024-02-10T17:48:37.762Z,7.30
2024-02-10T17:51:09.147Z,6.80
2024-02-10T17:53:39.985Z,6.90
2024-02-10T17:56:13.244Z,5.80
2024-02-10T17:58:45.144Z,6.80
2024-02-10T18:01:21.497Z,7.00
2024-02-10T18:03:52.308Z,6.50
2024-02-10T18:06:24.264Z,6.40
2024-02-10T18:08:55.139Z,8.30
2024-02-10T18:11:25.844Z,7.10
2024-02-10T18:13:56.654Z,7.90
2024-02-10T18:16:28.430Z,7.80
2024-02-10T18:18:59.382Z,9.30
2024-02-10T18:21:30.135Z,9.10
2024-02-10T18:24:05.859Z,7.60
2024-02-10T18:26:38.722Z,7.50
2024-02-10T18:29:09.642Z,10.00
2024-02-10T18:31:42.132Z,8.60
2024-02-10T18:34:13.395Z,6.30
2024-02-10T18:36:46.662Z,7.40
2024-02-10T18:39:18.182Z,8.40
2024-02-10T18:41:52.024Z,7.20
2024-02-10T18:44:23.418Z,7.60
2024-02-10T18:46:54.766Z,7.20
2024-02-10T18:49:30.887Z,9.00
2024-02-10T18:52:04.678Z,7.80
2024-02-10T18:54:35.522Z,7.40
2024-02-10T18:57:11.910Z,7.30
2024-02-10T18:59:43.027Z,7.40
2024-02-10T19:02:18.531Z,8.20
2024-02-10T19:04:51.064Z,8.60
2024-02-10T19:07:22.792Z,8.10
2024-02-10T19:09:55.602Z,7.40
2024-02-10T19:12:26.315Z,6.60
2024-02-10T19:14:58.569Z,8.00
2024-02-10T19:17:29.995Z,7.00
2024-02-10T19:20:00.914Z,7.00
2024-02-10T19:22:31.976Z,5.30
2024-02-10T19:25:06.856Z,6.50
2024-02-10T19:27:39.990Z,6.90
2024-02-10T19:30:12.463Z,6.30
2024-02-10T19:32:44.440Z,6.90
2024-02-10T19:35:20.719Z,5.30
2024-02-10T19:37:52.592Z,6.50
2024-02-10T19:40:24.559Z,5.80
2024-02-10T19:42:56.264Z,6.10
2024-02-10T19:45:27.653Z,5.80
2024-02-10T19:47:59.362Z,6.60
2024-02-10T19:50:30.473Z,6.10
2024-02-10T19:53:02.788Z,5.90
2024-02-10T19:55:34.019Z,6.80
2024-02-10T19:58:04.785Z,5.50
2024-02-10T20:00:35.609Z,5.20
2024-02-10T20:03:08.041Z,5.30
2024-02-10T20:05:39.027Z,5.10
2024-02-10T20:08:10.468Z,5.20
2024-02-10T20:10:41.810Z,5.30
2024-02-10T20:13:12.617Z,5.10
2024-02-10T20:15:43.351Z,5.70
2024-02-10T20:18:14.934Z,4.90
2024-02-10T20:20:45.873Z,5.70
2024-02-10T20:23:18.175Z,6.00
2024-02-10T20:25:49.189Z,5.20
2024-02-10T20:28:19.959Z,5.80
2024-02-10T20:30:50.768Z,5.20
2024-02-10T20:33:21.667Z,5.50
2024-02-10T20:35:54.420Z,5.00
2024-02-10T20:38:25.236Z,5.20
2024-02-10T20:40:56.063Z,4.90
2024-02-10T20:43:26.798Z,5.50
2024-02-10T20:45:57.474Z,4.50
2024-02-10T20:48:28.819Z,4.80
2024-02-10T20:50:59.769Z,4.30
2024-02-10T20:53:31.066Z,4.90
2024-02-10T20:56:02.678Z,4.40
2024-02-10T20:58:34.140Z,4.00
2024-02-10T21:01:05.282Z,4.10
2024-02-10T21:03:37.704Z,4.60
2024-02-10T21:06:09.695Z,4.60
2024-02-10T21:08:46.254Z,5.10
2024-02-10T21:11:17.009Z,4.60
2024-02-10T21:13:47.948Z,4.70
2024-02-10T21:16:18.736Z,4.40
2024-02-10T21:18:50.984Z,5.20
2024-02-10T21:21:21.990Z,4.20
2024-02-10T21:23:52.655Z,3.70
2024-02-10T21:26:23.334Z,4.30
2024-02-10T21:28:56.400Z,5.30
2024-02-10T21:31:27.326Z,4.70
2024-02-10T21:33:58.309Z,5.00
2024-02-10T21:36:29.220Z,4.40
2024-02-10T21:38:59.927Z,4.00
2024-02-10T21:41:30.668Z,4.40
2024-02-10T21:44:02.297Z,4.50
2024-02-10T21:46:33.621Z,4.10
2024-02-10T21:49:04.564Z,4.60
2024-02-10T21:51:37.750Z,4.70
2024-02-10T21:54:08.923Z,4.40
2024-02-10T21:56:43.108Z,4.30
2024-02-10T21:59:17.432Z,4.70
2024-02-10T22:01:50.676Z,4.70
2024-02-10T22:04:23.588Z,4.60
2024-02-10T22:06:55.021Z,4.50
2024-02-10T22:09:28.444Z,4.40
2024-02-10T22:12:00.155Z,4.50
2024-02-10T22:14:31.043Z,4.70
2024-02-10T22:17:01.719Z,4.10
2024-02-10T22:19:32.410Z,5.20
2024-02-10T22:22:03.661Z,5.60
2024-02-10T22:24:34.431Z,6.90
2024-02-10T22:27:05.772Z,5.60
2024-02-10T22:29:36.461Z,6.90
2024-02-10T22:32:08.121Z,6.10
2024-02-10T22:34:40.045Z,4.90
2024-02-10T22:37:13.136Z,6.30
2024-02-10T22:39:44.338Z,6.10
2024-02-10T22:42:16.137Z,5.80
2024-02-10T22:44:49.063Z,5.40
2024-02-10T22:47:20.122Z,5.60
2024-02-10T22:49:53.422Z,6.20
2024-02-10T22:52:24.130Z,6.10
2024-02-10T22:54:55.607Z,5.40
2024-02-10T22:57:26.304Z,5.40
2024-02-10T22:59:57.574Z,5.60
2024-02-10T23:02:29.868Z,6.10
2024-02-10T23:05:02.862Z,5.00
2024-02-10T23:07:35.083Z,5.20
2024-02-10T23:10:07.103Z,5.70
2024-02-10T23:12:38.653Z,5.20
2024-02-10T23:15:14.718Z,4.70
2024-02-10T23:17:47.322Z,4.90
2024-02-10T23:20:18.598Z,4.50
2024-02-10T23:22:49.291Z,3.90
2024-02-10T23:25:20.376Z,4.10
2024-02-10T23:27:51.060Z,4.90
2024-02-10T23:30:21.992Z,5.60
2024-02-10T23:32:52.865Z,4.20
2024-02-10T23:35:27.370Z,3.60
2024-02-10T23:37:58.520Z,4.20
2024-02-10T23:40:29.589Z,4.20
2024-02-10T23:43:03.340Z,3.70
2024-02-10T23:45:34.426Z,3.50
2024-02-10T23:48:05.559Z,3.80
2024-02-10T23:50:36.902Z,3.20
2024-02-10T23:53:11.544Z,4.60
2024-02-10T23:55:43.930Z,4.20
2024-02-10T23:58:14.648Z,3.80
